sensor_id;sensor_type;location;lat;lon;timestamp;temperature;humidity
69598;SHT31;56802;51.184;-115.558;2022-08-01T00:00:14;31.26;17.31
69598;SHT31;56802;51.184;-115.558;2022-08-01T00:02:43;31.24;17.29
69598;SHT31;56802;51.184;-115.558;2022-08-01T00:05:12;31.22;17.26
69598;SHT31;56802;51.184;-115.558;2022-08-01T00:07:42;31.19;17.19
69598;SHT31;56802;51.184;-115.558;2022-08-01T00:10:12;31.18;17.21
69598;SHT31;56802;51.184;-115.558;2022-08-01T00:12:45;31.17;17.31
69598;SHT31;56802;51.184;-115.558;2022-08-01T00:15:15;31.17;17.37
69598;SHT31;56802;51.184;-115.558;2022-08-01T00:17:45;31.18;17.47
69598;SHT31;56802;51.184;-115.558;2022-08-01T00:20:15;31.15;17.84
69598;SHT31;56802;51.184;-115.558;2022-08-01T00:22:44;31.08;17.71
69598;SHT31;56802;51.184;-115.558;2022-08-01T00:25:13;30.95;17.66
69598;SHT31;56802;51.184;-115.558;2022-08-01T00:27:43;30.79;17.88
69598;SHT31;56802;51.184;-115.558;2022-08-01T00:30:13;30.65;18.12
69598;SHT31;56802;51.184;-115.558;2022-08-01T00:32:42;30.50;18.36
69598;SHT31;56802;51.184;-115.558;2022-08-01T00:35:12;30.39;18.47
69598;SHT31;56802;51.184;-115.558;2022-08-01T00:37:41;30.28;18.69
69598;SHT31;56802;51.184;-115.558;2022-08-01T00:40:11;30.19;18.59
69598;SHT31;56802;51.184;-115.558;2022-08-01T00:42:41;30.13;18.41
69598;SHT31;56802;51.184;-115.558;2022-08-01T00:45:10;30.13;18.34
69598;SHT31;56802;51.184;-115.558;2022-08-01T00:47:40;30.18;18.40
69598;SHT31;56802;51.184;-115.558;2022-08-01T00:50:09;30.20;18.56
69598;SHT31;56802;51.184;-115.558;2022-08-01T00:52:42;30.21;18.33
69598;SHT31;56802;51.184;-115.558;2022-08-01T00:55:18;30.22;18.26
69598;SHT31;56802;51.184;-115.558;2022-08-01T00:57:48;30.22;18.20
69598;SHT31;56802;51.184;-115.558;2022-08-01T01:00:32;30.23;18.23
69598;SHT31;56802;51.184;-115.558;2022-08-01T01:03:20;30.28;18.01
69598;SHT31;56802;51.184;-115.558;2022-08-01T01:06:18;30.32;18.44
69598;SHT31;56802;51.184;-115.558;2022-08-01T01:09:46;30.32;18.27
69598;SHT31;56802;51.184;-115.558;2022-08-01T01:12:47;30.40;18.34
69598;SHT31;56802;51.184;-115.558;2022-08-01T01:15:34;30.46;18.32
69598;SHT31;56802;51.184;-115.558;2022-08-01T01:20:52;30.50;18.53
69598;SHT31;56802;51.184;-115.558;2022-08-01T01:29:52;30.53;18.28
69598;SHT31;56802;51.184;-115.558;2022-08-01T01:35:31;30.44;18.33
69598;SHT31;56802;51.184;-115.558;2022-08-01T01:38:09;30.39;18.20
69598;SHT31;56802;51.184;-115.558;2022-08-01T01:40:56;30.34;18.27
69598;SHT31;56802;51.184;-115.558;2022-08-01T01:43:39;30.30;18.05
69598;SHT31;56802;51.184;-115.558;2022-08-01T01:46:10;30.26;18.05
69598;SHT31;56802;51.184;-115.558;2022-08-01T01:48:43;30.22;18.35
69598;SHT31;56802;51.184;-115.558;2022-08-01T01:51:15;30.17;18.63
69598;SHT31;56802;51.184;-115.558;2022-08-01T01:53:47;30.11;19.75
69598;SHT31;56802;51.184;-115.558;2022-08-01T01:56:19;30.04;22.37
69598;SHT31;56802;51.184;-115.558;2022-08-01T01:58:53;29.94;23.38
69598;SHT31;56802;51.184;-115.558;2022-08-01T02:01:29;29.84;23.17
69598;SHT31;56802;51.184;-115.558;2022-08-01T02:04:21;29.72;25.78
69598;SHT31;56802;51.184;-115.558;2022-08-01T02:06:53;29.61;25.00
69598;SHT31;56802;51.184;-115.558;2022-08-01T02:09:25;29.51;24.63
69598;SHT31;56802;51.184;-115.558;2022-08-01T02:11:56;29.27;27.66
69598;SHT31;56802;51.184;-115.558;2022-08-01T02:14:35;29.08;30.05
69598;SHT31;56802;51.184;-115.558;2022-08-01T02:17:11;28.88;31.52
69598;SHT31;56802;51.184;-115.558;2022-08-01T02:19:45;28.62;32.64
69598;SHT31;56802;51.184;-115.558;2022-08-01T02:22:19;28.41;33.84
69598;SHT31;56802;51.184;-115.558;2022-08-01T02:28:07;27.86;35.44
69598;SHT31;56802;51.184;-115.558;2022-08-01T02:30:47;27.67;36.34
69598;SHT31;56802;51.184;-115.558;2022-08-01T02:33:22;27.57;36.76
69598;SHT31;56802;51.184;-115.558;2022-08-01T02:36:01;27.41;37.32
69598;SHT31;56802;51.184;-115.558;2022-08-01T02:38:53;27.26;38.17
69598;SHT31;56802;51.184;-115.558;2022-08-01T02:41:26;27.05;38.85
69598;SHT31;56802;51.184;-115.558;2022-08-01T02:43:58;26.86;39.37
69598;SHT31;56802;51.184;-115.558;2022-08-01T02:46:43;26.71;39.91
69598;SHT31;56802;51.184;-115.558;2022-08-01T02:49:33;26.58;40.13
69598;SHT31;56802;51.184;-115.558;2022-08-01T02:52:14;26.43;40.45
69598;SHT31;56802;51.184;-115.558;2022-08-01T02:54:48;26.33;41.15
69598;SHT31;56802;51.184;-115.558;2022-08-01T02:57:21;26.17;41.88
69598;SHT31;56802;51.184;-115.558;2022-08-01T03:00:12;25.99;42.44
69598;SHT31;56802;51.184;-115.558;2022-08-01T03:02:44;25.84;42.81
69598;SHT31;56802;51.184;-115.558;2022-08-01T03:05:18;25.75;43.00
69598;SHT31;56802;51.184;-115.558;2022-08-01T03:07:47;25.66;43.28
69598;SHT31;56802;51.184;-115.558;2022-08-01T03:10:20;25.54;43.59
69598;SHT31;56802;51.184;-115.558;2022-08-01T03:12:50;25.44;43.57
69598;SHT31;56802;51.184;-115.558;2022-08-01T03:15:21;25.32;43.98
69598;SHT31;56802;51.184;-115.558;2022-08-01T03:17:54;25.21;43.96
69598;SHT31;56802;51.184;-115.558;2022-08-01T03:20:24;25.12;44.12
69598;SHT31;56802;51.184;-115.558;2022-08-01T03:22:56;24.98;44.48
69598;SHT31;56802;51.184;-115.558;2022-08-01T03:25:29;24.85;44.41
69598;SHT31;56802;51.184;-115.558;2022-08-01T03:28:04;24.74;44.49
69598;SHT31;56802;51.184;-115.558;2022-08-01T03:30:36;24.62;44.74
69598;SHT31;56802;51.184;-115.558;2022-08-01T03:33:08;24.49;44.90
69598;SHT31;56802;51.184;-115.558;2022-08-01T03:35:42;24.35;45.05
69598;SHT31;56802;51.184;-115.558;2022-08-01T03:38:22;24.23;45.28
69598;SHT31;56802;51.184;-115.558;2022-08-01T03:44:02;24.01;45.71
69598;SHT31;56802;51.184;-115.558;2022-08-01T03:46:48;23.90;46.30
69598;SHT31;56802;51.184;-115.558;2022-08-01T03:49:28;23.79;46.62
69598;SHT31;56802;51.184;-115.558;2022-08-01T03:52:02;23.68;46.96
69598;SHT31;56802;51.184;-115.558;2022-08-01T03:54:36;23.61;47.15
69598;SHT31;56802;51.184;-115.558;2022-08-01T03:57:13;23.55;47.38
69598;SHT31;56802;51.184;-115.558;2022-08-01T04:00:03;23.48;47.48
69598;SHT31;56802;51.184;-115.558;2022-08-01T04:02:36;23.43;47.43
69598;SHT31;56802;51.184;-115.558;2022-08-01T04:05:07;23.39;47.48
69598;SHT31;56802;51.184;-115.558;2022-08-01T04:07:38;23.34;47.73
69598;SHT31;56802;51.184;-115.558;2022-08-01T04:10:10;23.25;47.90
69598;SHT31;56802;51.184;-115.558;2022-08-01T04:12:39;23.17;48.12
69598;SHT31;56802;51.184;-115.558;2022-08-01T04:15:09;23.06;48.36
69598;SHT31;56802;51.184;-115.558;2022-08-01T04:17:38;22.97;48.57
69598;SHT31;56802;51.184;-115.558;2022-08-01T04:20:07;22.89;48.57
69598;SHT31;56802;51.184;-115.558;2022-08-01T04:22:39;22.81;48.52
69598;SHT31;56802;51.184;-115.558;2022-08-01T04:25:15;22.76;48.36
69598;SHT31;56802;51.184;-115.558;2022-08-01T04:27:54;22.70;48.27
69598;SHT31;56802;51.184;-115.558;2022-08-01T04:30:29;22.60;48.22
69598;SHT31;56802;51.184;-115.558;2022-08-01T04:33:04;22.53;48.14
69598;SHT31;56802;51.184;-115.558;2022-08-01T04:35:37;22.47;48.15
69598;SHT31;56802;51.184;-115.558;2022-08-01T04:38:30;22.40;48.24
69598;SHT31;56802;51.184;-115.558;2022-08-01T04:41:04;22.34;48.30
69598;SHT31;56802;51.184;-115.558;2022-08-01T04:43:41;22.29;48.50
69598;SHT31;56802;51.184;-115.558;2022-08-01T04:46:11;22.23;48.57
69598;SHT31;56802;51.184;-115.558;2022-08-01T04:48:45;22.19;48.56
69598;SHT31;56802;51.184;-115.558;2022-08-01T04:51:17;22.17;48.69
69598;SHT31;56802;51.184;-115.558;2022-08-01T04:53:49;22.12;48.84
69598;SHT31;56802;51.184;-115.558;2022-08-01T04:56:19;22.06;49.01
69598;SHT31;56802;51.184;-115.558;2022-08-01T04:58:48;22.01;49.15
69598;SHT31;56802;51.184;-115.558;2022-08-01T05:01:47;21.95;49.36
69598;SHT31;56802;51.184;-115.558;2022-08-01T05:04:18;21.91;49.35
69598;SHT31;56802;51.184;-115.558;2022-08-01T05:06:47;21.87;49.47
69598;SHT31;56802;51.184;-115.558;2022-08-01T05:09:16;21.85;49.58
69598;SHT31;56802;51.184;-115.558;2022-08-01T05:11:46;21.81;49.73
69598;SHT31;56802;51.184;-115.558;2022-08-01T05:14:15;21.77;49.89
69598;SHT31;56802;51.184;-115.558;2022-08-01T05:16:45;21.71;49.98
69598;SHT31;56802;51.184;-115.558;2022-08-01T05:19:14;21.66;50.29
69598;SHT31;56802;51.184;-115.558;2022-08-01T05:21:44;21.62;50.31
69598;SHT31;56802;51.184;-115.558;2022-08-01T05:24:13;21.59;50.30
69598;SHT31;56802;51.184;-115.558;2022-08-01T05:26:43;21.55;50.45
69598;SHT31;56802;51.184;-115.558;2022-08-01T05:29:13;21.50;50.55
69598;SHT31;56802;51.184;-115.558;2022-08-01T05:31:43;21.47;50.60
69598;SHT31;56802;51.184;-115.558;2022-08-01T05:34:12;21.43;50.59
69598;SHT31;56802;51.184;-115.558;2022-08-01T05:36:42;21.40;50.61
69598;SHT31;56802;51.184;-115.558;2022-08-01T05:39:11;21.35;50.79
69598;SHT31;56802;51.184;-115.558;2022-08-01T05:41:42;21.29;50.89
69598;SHT31;56802;51.184;-115.558;2022-08-01T05:44:11;21.24;51.27
69598;SHT31;56802;51.184;-115.558;2022-08-01T05:46:40;21.18;51.48
69598;SHT31;56802;51.184;-115.558;2022-08-01T05:49:09;21.10;52.07
69598;SHT31;56802;51.184;-115.558;2022-08-01T05:51:38;21.03;52.36
69598;SHT31;56802;51.184;-115.558;2022-08-01T05:54:08;20.99;52.64
69598;SHT31;56802;51.184;-115.558;2022-08-01T05:56:37;20.94;53.00
69598;SHT31;56802;51.184;-115.558;2022-08-01T05:59:07;20.89;53.37
69598;SHT31;56802;51.184;-115.558;2022-08-01T06:01:36;20.85;53.48
69598;SHT31;56802;51.184;-115.558;2022-08-01T06:04:10;20.80;53.86
69598;SHT31;56802;51.184;-115.558;2022-08-01T06:06:39;20.76;54.22
69598;SHT31;56802;51.184;-115.558;2022-08-01T06:09:08;20.70;54.39
69598;SHT31;56802;51.184;-115.558;2022-08-01T06:11:37;20.67;54.46
69598;SHT31;56802;51.184;-115.558;2022-08-01T06:14:07;20.60;54.63
69598;SHT31;56802;51.184;-115.558;2022-08-01T06:16:36;20.54;55.04
69598;SHT31;56802;51.184;-115.558;2022-08-01T06:19:06;20.49;55.12
69598;SHT31;56802;51.184;-115.558;2022-08-01T06:21:35;20.44;55.48
69598;SHT31;56802;51.184;-115.558;2022-08-01T06:24:04;20.37;55.86
69598;SHT31;56802;51.184;-115.558;2022-08-01T06:26:34;20.32;56.02
69598;SHT31;56802;51.184;-115.558;2022-08-01T06:29:04;20.27;56.11
69598;SHT31;56802;51.184;-115.558;2022-08-01T06:31:35;20.22;56.65
69598;SHT31;56802;51.184;-115.558;2022-08-01T06:34:05;20.17;56.78
69598;SHT31;56802;51.184;-115.558;2022-08-01T06:36:34;20.13;57.08
69598;SHT31;56802;51.184;-115.558;2022-08-01T06:39:03;20.08;57.38
69598;SHT31;56802;51.184;-115.558;2022-08-01T06:41:33;20.04;57.58
69598;SHT31;56802;51.184;-115.558;2022-08-01T06:44:02;19.99;57.82
69598;SHT31;56802;51.184;-115.558;2022-08-01T06:46:34;19.96;57.99
69598;SHT31;56802;51.184;-115.558;2022-08-01T06:49:03;19.92;58.27
69598;SHT31;56802;51.184;-115.558;2022-08-01T06:51:32;19.88;58.64
69598;SHT31;56802;51.184;-115.558;2022-08-01T06:54:02;19.82;59.11
69598;SHT31;56802;51.184;-115.558;2022-08-01T06:56:31;19.78;59.29
69598;SHT31;56802;51.184;-115.558;2022-08-01T06:59:02;19.74;59.47
69598;SHT31;56802;51.184;-115.558;2022-08-01T07:01:32;19.71;59.54
69598;SHT31;56802;51.184;-115.558;2022-08-01T07:04:01;19.68;59.87
69598;SHT31;56802;51.184;-115.558;2022-08-01T07:06:31;19.65;60.05
69598;SHT31;56802;51.184;-115.558;2022-08-01T07:09:00;19.61;60.22
69598;SHT31;56802;51.184;-115.558;2022-08-01T07:11:37;19.58;60.60
69598;SHT31;56802;51.184;-115.558;2022-08-01T07:14:07;19.56;60.59
69598;SHT31;56802;51.184;-115.558;2022-08-01T07:16:36;19.52;61.31
69598;SHT31;56802;51.184;-115.558;2022-08-01T07:19:06;19.48;61.37
69598;SHT31;56802;51.184;-115.558;2022-08-01T07:21:35;19.46;61.59
69598;SHT31;56802;51.184;-115.558;2022-08-01T07:24:08;19.46;61.94
69598;SHT31;56802;51.184;-115.558;2022-08-01T07:26:41;19.43;62.14
69598;SHT31;56802;51.184;-115.558;2022-08-01T07:29:23;19.40;62.37
69598;SHT31;56802;51.184;-115.558;2022-08-01T07:31:53;19.40;62.49
69598;SHT31;56802;51.184;-115.558;2022-08-01T07:34:25;19.37;62.50
69598;SHT31;56802;51.184;-115.558;2022-08-01T07:36:54;19.36;62.60
69598;SHT31;56802;51.184;-115.558;2022-08-01T07:39:24;19.33;62.87
69598;SHT31;56802;51.184;-115.558;2022-08-01T07:41:53;19.28;63.08
69598;SHT31;56802;51.184;-115.558;2022-08-01T07:44:33;19.23;63.10
69598;SHT31;56802;51.184;-115.558;2022-08-01T07:47:04;19.19;63.06
69598;SHT31;56802;51.184;-115.558;2022-08-01T07:49:34;19.15;63.20
69598;SHT31;56802;51.184;-115.558;2022-08-01T07:52:07;19.11;63.59
69598;SHT31;56802;51.184;-115.558;2022-08-01T07:54:36;19.07;63.74
69598;SHT31;56802;51.184;-115.558;2022-08-01T07:57:06;19.04;64.12
69598;SHT31;56802;51.184;-115.558;2022-08-01T07:59:36;19.02;64.37
69598;SHT31;56802;51.184;-115.558;2022-08-01T08:02:05;19.02;64.35
69598;SHT31;56802;51.184;-115.558;2022-08-01T08:04:35;19.05;64.14
69598;SHT31;56802;51.184;-115.558;2022-08-01T08:07:04;19.07;63.99
69598;SHT31;56802;51.184;-115.558;2022-08-01T08:09:35;19.07;64.09
69598;SHT31;56802;51.184;-115.558;2022-08-01T08:12:05;19.05;64.08
69598;SHT31;56802;51.184;-115.558;2022-08-01T08:14:35;19.01;64.15
69598;SHT31;56802;51.184;-115.558;2022-08-01T08:17:05;18.95;64.22
69598;SHT31;56802;51.184;-115.558;2022-08-01T08:19:34;18.91;64.16
69598;SHT31;56802;51.184;-115.558;2022-08-01T08:22:06;18.83;64.08
69598;SHT31;56802;51.184;-115.558;2022-08-01T08:24:39;18.74;63.72
69598;SHT31;56802;51.184;-115.558;2022-08-01T08:27:12;18.65;63.77
69598;SHT31;56802;51.184;-115.558;2022-08-01T08:29:46;18.56;63.53
69598;SHT31;56802;51.184;-115.558;2022-08-01T08:32:15;18.51;63.41
69598;SHT31;56802;51.184;-115.558;2022-08-01T08:34:45;18.47;63.10
69598;SHT31;56802;51.184;-115.558;2022-08-01T08:37:15;18.41;63.00
69598;SHT31;56802;51.184;-115.558;2022-08-01T08:39:46;18.35;63.08
69598;SHT31;56802;51.184;-115.558;2022-08-01T08:42:16;18.32;62.81
69598;SHT31;56802;51.184;-115.558;2022-08-01T08:44:47;18.30;62.80
69598;SHT31;56802;51.184;-115.558;2022-08-01T08:47:16;18.28;62.63
69598;SHT31;56802;51.184;-115.558;2022-08-01T08:49:49;18.25;62.59
69598;SHT31;56802;51.184;-115.558;2022-08-01T08:52:22;18.23;62.65
69598;SHT31;56802;51.184;-115.558;2022-08-01T08:54:51;18.20;62.38
69598;SHT31;56802;51.184;-115.558;2022-08-01T08:57:22;18.19;62.47
69598;SHT31;56802;51.184;-115.558;2022-08-01T08:59:51;18.18;62.46
69598;SHT31;56802;51.184;-115.558;2022-08-01T09:02:21;18.15;62.71
69598;SHT31;56802;51.184;-115.558;2022-08-01T09:04:51;18.08;62.87
69598;SHT31;56802;51.184;-115.558;2022-08-01T09:07:21;18.01;62.97
69598;SHT31;56802;51.184;-115.558;2022-08-01T09:09:52;17.95;63.08
69598;SHT31;56802;51.184;-115.558;2022-08-01T09:12:22;17.89;63.22
69598;SHT31;56802;51.184;-115.558;2022-08-01T09:14:51;17.85;63.16
69598;SHT31;56802;51.184;-115.558;2022-08-01T09:17:21;17.83;63.12
69598;SHT31;56802;51.184;-115.558;2022-08-01T09:19:52;17.78;63.11
69598;SHT31;56802;51.184;-115.558;2022-08-01T09:22:24;17.75;63.09
69598;SHT31;56802;51.184;-115.558;2022-08-01T09:25:03;17.74;63.02
69598;SHT31;56802;51.184;-115.558;2022-08-01T09:27:38;17.68;63.15
69598;SHT31;56802;51.184;-115.558;2022-08-01T09:30:15;17.61;63.22
69598;SHT31;56802;51.184;-115.558;2022-08-01T09:35:54;17.55;63.18
69598;SHT31;56802;51.184;-115.558;2022-08-01T09:38:25;17.48;63.26
69598;SHT31;56802;51.184;-115.558;2022-08-01T09:40:59;17.39;63.41
69598;SHT31;56802;51.184;-115.558;2022-08-01T09:43:29;17.33;63.49
69598;SHT31;56802;51.184;-115.558;2022-08-01T09:46:03;17.25;63.65
69598;SHT31;56802;51.184;-115.558;2022-08-01T09:48:40;17.19;63.81
69598;SHT31;56802;51.184;-115.558;2022-08-01T09:51:34;17.10;63.92
69598;SHT31;56802;51.184;-115.558;2022-08-01T09:54:32;17.03;64.00
69598;SHT31;56802;51.184;-115.558;2022-08-01T09:57:12;16.96;64.05
69598;SHT31;56802;51.184;-115.558;2022-08-01T09:59:46;16.88;64.11
69598;SHT31;56802;51.184;-115.558;2022-08-01T10:02:37;16.80;64.40
69598;SHT31;56802;51.184;-115.558;2022-08-01T10:05:10;16.73;64.45
69598;SHT31;56802;51.184;-115.558;2022-08-01T10:07:59;16.73;64.31
69598;SHT31;56802;51.184;-115.558;2022-08-01T10:10:33;16.75;64.09
69598;SHT31;56802;51.184;-115.558;2022-08-01T10:13:03;16.79;63.97
69598;SHT31;56802;51.184;-115.558;2022-08-01T10:15:35;16.79;63.91
69598;SHT31;56802;51.184;-115.558;2022-08-01T10:18:05;16.78;63.81
69598;SHT31;56802;51.184;-115.558;2022-08-01T10:20:51;16.83;63.65
69598;SHT31;56802;51.184;-115.558;2022-08-01T10:23:24;16.86;63.51
69598;SHT31;56802;51.184;-115.558;2022-08-01T10:26:07;16.87;63.34
69598;SHT31;56802;51.184;-115.558;2022-08-01T10:28:40;16.87;63.26
69598;SHT31;56802;51.184;-115.558;2022-08-01T10:31:16;16.88;63.15
69598;SHT31;56802;51.184;-115.558;2022-08-01T10:33:57;16.84;63.14
69598;SHT31;56802;51.184;-115.558;2022-08-01T10:36:27;16.82;63.14
69598;SHT31;56802;51.184;-115.558;2022-08-01T10:38:59;16.81;63.23
69598;SHT31;56802;51.184;-115.558;2022-08-01T10:41:29;16.81;63.20
69598;SHT31;56802;51.184;-115.558;2022-08-01T10:44:01;16.78;63.21
69598;SHT31;56802;51.184;-115.558;2022-08-01T10:46:30;16.74;63.30
69598;SHT31;56802;51.184;-115.558;2022-08-01T10:49:18;16.70;63.36
69598;SHT31;56802;51.184;-115.558;2022-08-01T10:51:52;16.70;63.38
69598;SHT31;56802;51.184;-115.558;2022-08-01T10:54:26;16.67;63.40
69598;SHT31;56802;51.184;-115.558;2022-08-01T10:56:56;16.65;63.24
69598;SHT31;56802;51.184;-115.558;2022-08-01T10:59:29;16.60;63.14
69598;SHT31;56802;51.184;-115.558;2022-08-01T11:02:32;16.54;63.26
69598;SHT31;56802;51.184;-115.558;2022-08-01T11:05:04;16.47;63.33
69598;SHT31;56802;51.184;-115.558;2022-08-01T11:07:53;16.42;63.35
69598;SHT31;56802;51.184;-115.558;2022-08-01T11:10:41;16.35;63.46
69598;SHT31;56802;51.184;-115.558;2022-08-01T11:13:11;16.26;63.68
69598;SHT31;56802;51.184;-115.558;2022-08-01T11:15:41;16.30;63.79
69598;SHT31;56802;51.184;-115.558;2022-08-01T11:21:04;16.46;65.14
69598;SHT31;56802;51.184;-115.558;2022-08-01T11:23:53;16.60;65.23
69598;SHT31;56802;51.184;-115.558;2022-08-01T11:26:23;16.70;65.08
69598;SHT31;56802;51.184;-115.558;2022-08-01T11:29:16;16.77;64.97
69598;SHT31;56802;51.184;-115.558;2022-08-01T11:31:48;16.82;65.10
69598;SHT31;56802;51.184;-115.558;2022-08-01T11:34:19;16.84;65.07
69598;SHT31;56802;51.184;-115.558;2022-08-01T11:37:22;16.83;65.14
69598;SHT31;56802;51.184;-115.558;2022-08-01T11:40:15;16.80;65.39
69598;SHT31;56802;51.184;-115.558;2022-08-01T11:43:16;16.72;65.78
69598;SHT31;56802;51.184;-115.558;2022-08-01T11:45:47;16.69;66.01
69598;SHT31;56802;51.184;-115.558;2022-08-01T11:48:24;16.63;66.42
69598;SHT31;56802;51.184;-115.558;2022-08-01T11:50:56;16.58;66.79
69598;SHT31;56802;51.184;-115.558;2022-08-01T11:53:27;16.56;66.65
69598;SHT31;56802;51.184;-115.558;2022-08-01T11:56:02;16.58;66.56
69598;SHT31;56802;51.184;-115.558;2022-08-01T11:58:32;16.61;66.48
69598;SHT31;56802;51.184;-115.558;2022-08-01T12:01:01;16.63;66.52
69598;SHT31;56802;51.184;-115.558;2022-08-01T12:03:32;16.68;66.89
69598;SHT31;56802;51.184;-115.558;2022-08-01T12:06:03;16.74;67.09
69598;SHT31;56802;51.184;-115.558;2022-08-01T12:08:33;16.79;67.42
69598;SHT31;56802;51.184;-115.558;2022-08-01T12:11:04;16.83;67.82
69598;SHT31;56802;51.184;-115.558;2022-08-01T12:13:41;16.85;68.30
69598;SHT31;56802;51.184;-115.558;2022-08-01T12:16:12;16.85;68.70
69598;SHT31;56802;51.184;-115.558;2022-08-01T12:18:42;16.86;69.10
69598;SHT31;56802;51.184;-115.558;2022-08-01T12:21:12;16.88;69.32
69598;SHT31;56802;51.184;-115.558;2022-08-01T12:23:41;16.94;69.94
69598;SHT31;56802;51.184;-115.558;2022-08-01T12:26:10;16.98;70.41
69598;SHT31;56802;51.184;-115.558;2022-08-01T12:28:58;17.07;71.08
69598;SHT31;56802;51.184;-115.558;2022-08-01T12:31:33;17.12;71.31
69598;SHT31;56802;51.184;-115.558;2022-08-01T12:37:07;17.20;71.67
69598;SHT31;56802;51.184;-115.558;2022-08-01T12:39:37;17.22;71.96
69598;SHT31;56802;51.184;-115.558;2022-08-01T12:42:07;17.29;72.29
69598;SHT31;56802;51.184;-115.558;2022-08-01T12:44:39;17.33;72.69
69598;SHT31;56802;51.184;-115.558;2022-08-01T12:47:12;17.37;72.38
69598;SHT31;56802;51.184;-115.558;2022-08-01T12:49:43;17.41;72.23
69598;SHT31;56802;51.184;-115.558;2022-08-01T12:52:15;17.43;71.83
69598;SHT31;56802;51.184;-115.558;2022-08-01T12:57:39;17.50;71.23
69598;SHT31;56802;51.184;-115.558;2022-08-01T13:00:19;17.48;71.53
69598;SHT31;56802;51.184;-115.558;2022-08-01T13:03:02;17.50;72.24
69598;SHT31;56802;51.184;-115.558;2022-08-01T13:05:45;17.62;72.24
69598;SHT31;56802;51.184;-115.558;2022-08-01T13:08:22;17.72;72.52
69598;SHT31;56802;51.184;-115.558;2022-08-01T13:11:05;17.80;72.16
69598;SHT31;56802;51.184;-115.558;2022-08-01T13:13:41;17.86;72.86
69598;SHT31;56802;51.184;-115.558;2022-08-01T13:16:12;17.91;72.85
69598;SHT31;56802;51.184;-115.558;2022-08-01T13:18:59;18.02;72.61
69598;SHT31;56802;51.184;-115.558;2022-08-01T13:21:31;18.15;72.29
69598;SHT31;56802;51.184;-115.558;2022-08-01T13:24:26;18.30;72.11
69598;SHT31;56802;51.184;-115.558;2022-08-01T13:27:00;18.37;71.94
69598;SHT31;56802;51.184;-115.558;2022-08-01T13:29:32;18.38;71.65
69598;SHT31;56802;51.184;-115.558;2022-08-01T13:32:15;18.35;69.32
69598;SHT31;56802;51.184;-115.558;2022-08-01T13:37:51;18.09;66.49
69598;SHT31;56802;51.184;-115.558;2022-08-01T13:40:26;17.97;65.37
69598;SHT31;56802;51.184;-115.558;2022-08-01T13:42:56;17.81;64.36
69598;SHT31;56802;51.184;-115.558;2022-08-01T13:45:25;17.63;64.46
69598;SHT31;56802;51.184;-115.558;2022-08-01T13:47:55;17.57;64.40
69598;SHT31;56802;51.184;-115.558;2022-08-01T13:50:38;17.56;64.17
69598;SHT31;56802;51.184;-115.558;2022-08-01T13:53:08;17.57;64.01
69598;SHT31;56802;51.184;-115.558;2022-08-01T13:55:37;17.63;64.01
69598;SHT31;56802;51.184;-115.558;2022-08-01T13:58:06;17.61;63.94
69598;SHT31;56802;51.184;-115.558;2022-08-01T14:00:36;17.64;63.84
69598;SHT31;56802;51.184;-115.558;2022-08-01T14:03:06;17.64;63.59
69598;SHT31;56802;51.184;-115.558;2022-08-01T14:05:37;17.65;63.59
69598;SHT31;56802;51.184;-115.558;2022-08-01T14:08:07;17.71;63.63
69598;SHT31;56802;51.184;-115.558;2022-08-01T14:10:37;17.72;63.59
69598;SHT31;56802;51.184;-115.558;2022-08-01T14:13:09;17.80;63.49
69598;SHT31;56802;51.184;-115.558;2022-08-01T14:15:38;17.85;63.49
69598;SHT31;56802;51.184;-115.558;2022-08-01T14:18:09;17.99;63.36
69598;SHT31;56802;51.184;-115.558;2022-08-01T14:20:41;18.15;62.71
69598;SHT31;56802;51.184;-115.558;2022-08-01T14:23:11;18.32;62.26
69598;SHT31;56802;51.184;-115.558;2022-08-01T14:25:40;18.47;62.23
69598;SHT31;56802;51.184;-115.558;2022-08-01T14:28:29;18.68;62.24
69598;SHT31;56802;51.184;-115.558;2022-08-01T14:30:58;18.84;61.84
69598;SHT31;56802;51.184;-115.558;2022-08-01T14:33:28;19.04;61.74
69598;SHT31;56802;51.184;-115.558;2022-08-01T14:36:00;19.23;61.85
69598;SHT31;56802;51.184;-115.558;2022-08-01T14:38:49;19.36;60.41
69598;SHT31;56802;51.184;-115.558;2022-08-01T14:41:29;19.45;59.66
69598;SHT31;56802;51.184;-115.558;2022-08-01T14:43:58;19.54;58.90
69598;SHT31;56802;51.184;-115.558;2022-08-01T14:46:27;19.56;58.46
69598;SHT31;56802;51.184;-115.558;2022-08-01T14:48:59;19.55;58.25
69598;SHT31;56802;51.184;-115.558;2022-08-01T14:51:29;19.50;58.09
69598;SHT31;56802;51.184;-115.558;2022-08-01T14:54:00;19.46;58.08
69598;SHT31;56802;51.184;-115.558;2022-08-01T14:56:30;19.40;58.12
69598;SHT31;56802;51.184;-115.558;2022-08-01T14:58:59;19.32;58.41
69598;SHT31;56802;51.184;-115.558;2022-08-01T15:01:36;19.38;58.70
69598;SHT31;56802;51.184;-115.558;2022-08-01T15:04:06;19.41;58.67
69598;SHT31;56802;51.184;-115.558;2022-08-01T15:06:36;19.44;58.92
69598;SHT31;56802;51.184;-115.558;2022-08-01T15:09:06;19.53;59.04
69598;SHT31;56802;51.184;-115.558;2022-08-01T15:11:38;19.62;59.19
69598;SHT31;56802;51.184;-115.558;2022-08-01T15:14:07;19.70;59.13
69598;SHT31;56802;51.184;-115.558;2022-08-01T15:16:55;19.75;59.03
69598;SHT31;56802;51.184;-115.558;2022-08-01T15:19:24;19.80;59.15
69598;SHT31;56802;51.184;-115.558;2022-08-01T15:21:55;19.82;59.35
69598;SHT31;56802;51.184;-115.558;2022-08-01T15:24:27;19.85;58.89
69598;SHT31;56802;51.184;-115.558;2022-08-01T15:26:56;19.83;58.49
69598;SHT31;56802;51.184;-115.558;2022-08-01T15:29:26;19.81;58.33
69598;SHT31;56802;51.184;-115.558;2022-08-01T15:31:55;19.81;58.58
69598;SHT31;56802;51.184;-115.558;2022-08-01T15:34:25;19.85;59.19
69598;SHT31;56802;51.184;-115.558;2022-08-01T15:36:54;19.85;59.69
69598;SHT31;56802;51.184;-115.558;2022-08-01T15:39:24;19.83;59.82
69598;SHT31;56802;51.184;-115.558;2022-08-01T15:41:54;19.84;59.99
69598;SHT31;56802;51.184;-115.558;2022-08-01T15:44:26;19.92;60.41
69598;SHT31;56802;51.184;-115.558;2022-08-01T15:46:56;20.02;60.07
69598;SHT31;56802;51.184;-115.558;2022-08-01T15:49:26;20.12;59.75
69598;SHT31;56802;51.184;-115.558;2022-08-01T15:51:56;20.25;59.63
69598;SHT31;56802;51.184;-115.558;2022-08-01T15:54:25;20.33;59.43
69598;SHT31;56802;51.184;-115.558;2022-08-01T15:56:54;20.42;59.28
69598;SHT31;56802;51.184;-115.558;2022-08-01T15:59:24;20.48;59.27